createdAt,value
2023-02-19T00:01:13.431Z,89.19
2023-02-19T00:03:41.819Z,90.15
2023-02-19T00:06:11.030Z,90.85
2023-02-19T00:08:38.831Z,90.76
2023-02-19T00:11:08.592Z,90.73
2023-02-19T00:13:40.243Z,90.74
2023-02-19T00:16:08.498Z,89.25
2023-02-19T00:18:36.136Z,89.43
2023-02-19T00:21:03.171Z,89.97
2023-02-19T00:23:30.095Z,89.68
2023-02-19T00:26:00.953Z,90.72
2023-02-19T00:28:29.702Z,91.55
2023-02-19T00:30:56.206Z,90.86
2023-02-19T00:33:22.741Z,89.76
2023-02-19T00:35:49.478Z,89.54
2023-02-19T00:38:15.963Z,89.25
2023-02-19T00:40:42.352Z,90.35
2023-02-19T00:43:08.750Z,90.68
2023-02-19T00:45:35.645Z,91.91
2023-02-19T00:48:02.076Z,92.10
2023-02-19T00:50:28.525Z,92.75
2023-02-19T00:52:54.933Z,92.87
2023-02-19T00:55:21.314Z,91.55
2023-02-19T00:57:47.685Z,91.15
2023-02-19T01:00:14.372Z,90.83
2023-02-19T01:02:40.945Z,90.72
2023-02-19T01:05:08.305Z,91.38
2023-02-19T01:07:38.689Z,91.54
2023-02-19T01:10:05.762Z,92.03
2023-02-19T01:12:32.465Z,92.63
2023-02-19T01:14:59.032Z,92.54
2023-02-19T01:17:25.567Z,92.81
2023-02-19T01:19:52.122Z,91.78
2023-02-19T01:22:18.542Z,92.04
2023-02-19T01:24:44.937Z,92.32
2023-02-19T01:27:11.342Z,92.57
2023-02-19T01:29:37.864Z,92.29
2023-02-19T01:32:04.370Z,92.28
2023-02-19T01:34:33.243Z,93.04
2023-02-19T01:37:00.075Z,93.83
2023-02-19T01:39:26.417Z,94.41
2023-02-19T01:41:52.848Z,94.94
2023-02-19T01:44:22.166Z,95.62
2023-02-19T01:46:48.684Z,95.04
2023-02-19T01:49:21.242Z,95.04
2023-02-19T01:51:54.273Z,94.86
2023-02-19T01:54:25.065Z,93.99
2023-02-19T01:56:52.282Z,94.49
2023-02-19T01:59:18.936Z,94.60
2023-02-19T02:01:46.107Z,94.06
2023-02-19T02:04:13.933Z,94.18
2023-02-19T02:06:49.593Z,94.75
2023-02-19T02:09:37.693Z,94.52
2023-02-19T02:12:04.418Z,93.89
2023-02-19T02:14:34.922Z,93.52
2023-02-19T02:17:20.179Z,93.70
2023-02-19T02:20:10.394Z,93.34
2023-02-19T02:23:11.963Z,93.70
2023-02-19T02:25:59.448Z,94.16
2023-02-19T02:28:36.319Z,93.85
2023-02-19T02:31:25.033Z,93.78
2023-02-19T02:34:04.599Z,94.68
2023-02-19T02:36:38.648Z,94.70
2023-02-19T02:39:09.107Z,93.58
2023-02-19T02:41:42.230Z,93.69
2023-02-19T02:44:08.589Z,93.78
2023-02-19T02:46:38.743Z,92.75
2023-02-19T02:49:08.962Z,92.62
2023-02-19T02:51:43.958Z,92.87
2023-02-19T02:54:37.415Z,93.62
2023-02-19T02:57:04.625Z,93.79
2023-02-19T02:59:35.752Z,94.08
2023-02-19T03:02:12.320Z,92.44
2023-02-19T03:05:14.994Z,92.21
2023-02-19T03:07:55.897Z,91.69
2023-02-19T03:10:36.108Z,92.55
2023-02-19T03:13:24.694Z,92.52
2023-02-19T03:16:15.087Z,92.55
2023-02-19T03:19:05.030Z,93.22
2023-02-19T03:21:34.864Z,92.96
2023-02-19T03:24:21.769Z,93.11
2023-02-19T03:26:53.841Z,93.22
2023-02-19T03:29:26.417Z,93.91
2023-02-19T03:32:00.724Z,91.91
2023-02-19T03:34:34.760Z,90.48
2023-02-19T03:37:08.813Z,90.32
2023-02-19T03:39:44.157Z,90.07
2023-02-19T03:42:58.953Z,91.04
2023-02-19T03:45:50.289Z,91.44
2023-02-19T03:48:25.112Z,91.30
2023-02-19T03:51:16.271Z,90.91
2023-02-19T03:54:07.529Z,89.13
2023-02-19T03:56:42.742Z,88.77
2023-02-19T03:59:09.096Z,88.76
2023-02-19T04:01:47.127Z,89.68
2023-02-19T04:04:21.785Z,87.92
2023-02-19T04:06:53.870Z,88.09
2023-02-19T04:09:22.805Z,89.38
2023-02-19T04:11:51.694Z,89.16
2023-02-19T04:14:31.054Z,89.61
2023-02-19T04:17:06.286Z,89.05
2023-02-19T04:19:36.705Z,90.17
2023-02-19T04:22:05.738Z,89.96
2023-02-19T04:24:44.358Z,89.47
2023-02-19T04:27:11.119Z,89.44
2023-02-19T04:29:39.184Z,88.96
2023-02-19T04:32:06.478Z,89.13
2023-02-19T04:34:33.154Z,89.21
2023-02-19T04:36:59.481Z,88.22
2023-02-19T04:39:25.869Z,89.03
2023-02-19T04:41:52.194Z,89.38
2023-02-19T04:44:18.598Z,89.29
2023-02-19T04:46:45.353Z,89.01
2023-02-19T04:49:11.796Z,89.16
2023-02-19T04:51:39.038Z,88.44
2023-02-19T04:54:05.558Z,88.94
2023-02-19T04:56:32.020Z,88.66
2023-02-19T04:58:58.425Z,87.87
2023-02-19T05:01:25.437Z,87.45
2023-02-19T05:03:52.410Z,87.99
2023-02-19T05:06:18.935Z,88.61
2023-02-19T05:08:45.406Z,87.61
2023-02-19T05:11:12.932Z,86.83
2023-02-19T05:13:39.851Z,87.95
2023-02-19T05:16:13.774Z,88.39
2023-02-19T05:18:41.524Z,88.19
2023-02-19T05:21:09.266Z,88.26
2023-02-19T05:23:36.091Z,87.27
2023-02-19T05:26:12.245Z,87.96
2023-02-19T05:28:39.098Z,87.19
2023-02-19T05:31:09.060Z,87.18
2023-02-19T05:33:37.209Z,87.54
2023-02-19T05:36:12.293Z,86.71
2023-02-19T05:38:40.111Z,87.48
2023-02-19T05:41:14.448Z,86.86
2023-02-19T05:43:42.353Z,87.36
2023-02-19T05:46:10.386Z,86.70
2023-02-19T05:48:37.330Z,86.01
2023-02-19T05:51:05.882Z,86.81
2023-02-19T05:53:33.028Z,86.32
2023-02-19T05:55:59.897Z,86.95
2023-02-19T05:58:27.492Z,86.53
2023-02-19T06:00:53.989Z,86.00
2023-02-19T06:03:21.093Z,86.31
2023-02-19T06:05:47.732Z,86.07
2023-02-19T06:08:15.832Z,86.18
2023-02-19T06:10:42.473Z,86.01
2023-02-19T06:13:09.875Z,86.92
2023-02-19T06:15:37.168Z,85.68
2023-02-19T06:18:04.238Z,86.62
2023-02-19T06:20:30.615Z,87.12
2023-02-19T06:22:57.017Z,86.50
2023-02-19T06:25:23.449Z,87.50
2023-02-19T06:27:49.874Z,87.31
2023-02-19T06:30:16.363Z,88.02
2023-02-19T06:32:42.782Z,87.79
2023-02-19T06:35:09.191Z,88.65
2023-02-19T06:37:35.783Z,88.09
2023-02-19T06:40:02.192Z,88.01
2023-02-19T06:42:32.535Z,88.59
2023-02-19T06:44:59.005Z,88.82
2023-02-19T06:47:25.588Z,88.58
2023-02-19T06:49:52.033Z,87.38
2023-02-19T06:52:18.441Z,88.07
2023-02-19T06:54:44.883Z,87.63
2023-02-19T06:57:11.295Z,87.43
2023-02-19T06:59:37.691Z,86.92
2023-02-19T07:02:04.082Z,87.50
2023-02-19T07:04:30.464Z,87.96
2023-02-19T07:06:57.011Z,87.18
2023-02-19T07:09:25.306Z,86.99
2023-02-19T07:11:52.298Z,87.50
2023-02-19T07:14:18.961Z,86.71
2023-02-19T07:16:47.465Z,86.53
2023-02-19T07:19:15.106Z,86.98
2023-02-19T07:21:42.307Z,86.56
2023-02-19T07:24:10.178Z,86.43
2023-02-19T07:26:36.716Z,86.58
2023-02-19T07:29:04.062Z,86.01
2023-02-19T07:31:30.689Z,86.01
2023-02-19T07:33:57.347Z,86.26
2023-02-19T07:36:24.546Z,86.06
2023-02-19T07:38:57.872Z,86.12
2023-02-19T07:41:26.124Z,85.17
2023-02-19T07:43:53.792Z,86.29
2023-02-19T07:46:21.468Z,86.42
2023-02-19T07:48:47.852Z,85.99
2023-02-19T07:51:18.927Z,86.16
2023-02-19T07:53:46.818Z,86.98
2023-02-19T07:56:13.901Z,86.65
2023-02-19T07:58:40.948Z,85.80
2023-02-19T08:01:18.910Z,86.71
2023-02-19T08:03:45.962Z,86.93
2023-02-19T08:06:12.720Z,87.87
2023-02-19T08:08:39.993Z,86.90
2023-02-19T08:11:25.202Z,87.34
2023-02-19T08:13:53.423Z,87.52
2023-02-19T08:16:33.108Z,87.63
2023-02-19T08:19:03.794Z,87.20
2023-02-19T08:21:30.257Z,86.70
2023-02-19T08:23:56.633Z,86.41
2023-02-19T08:26:24.259Z,86.76
2023-02-19T08:28:50.598Z,86.86
2023-02-19T08:31:17.322Z,87.58
2023-02-19T08:33:43.753Z,87.49
2023-02-19T08:36:11.174Z,87.77
2023-02-19T08:38:38.496Z,86.73
2023-02-19T08:41:10.602Z,87.36
2023-02-19T08:43:37.413Z,87.39
2023-02-19T08:46:04.290Z,87.47
2023-02-19T08:48:30.952Z,87.42
2023-02-19T08:50:59.850Z,87.51
2023-02-19T08:53:26.686Z,88.23
2023-02-19T08:55:53.482Z,87.41
2023-02-19T08:58:19.828Z,86.52
2023-02-19T09:00:46.455Z,86.14
2023-02-19T09:03:12.976Z,86.96
2023-02-19T09:05:40.425Z,87.03
2023-02-19T09:08:06.772Z,85.96
2023-02-19T09:10:33.309Z,85.71
2023-02-19T09:13:00.774Z,85.88
2023-02-19T09:15:28.470Z,84.36
2023-02-19T09:17:55.167Z,84.08
2023-02-19T09:20:21.601Z,83.57
2023-02-19T09:22:48.068Z,83.20
2023-02-19T09:25:14.742Z,83.26
2023-02-19T09:27:41.186Z,83.39
2023-02-19T09:30:08.061Z,82.43
2023-02-19T09:32:34.431Z,83.17
2023-02-19T09:35:01.135Z,82.66
2023-02-19T09:37:28.206Z,83.18
2023-02-19T09:39:55.024Z,83.06
2023-02-19T09:42:26.597Z,82.71
2023-02-19T09:44:55.810Z,81.76
2023-02-19T09:47:28.300Z,81.81
2023-02-19T09:49:59.686Z,81.66
2023-02-19T09:52:34.154Z,80.60
2023-02-19T09:55:25.926Z,81.34
2023-02-19T09:57:53.204Z,81.36
2023-02-19T10:00:23.866Z,79.02
2023-02-19T10:02:58.438Z,79.54
2023-02-19T10:05:26.311Z,80.39
2023-02-19T10:07:54.288Z,78.97
2023-02-19T10:10:34.881Z,78.43
2023-02-19T10:13:30.394Z,78.95
2023-02-19T10:15:58.820Z,79.88
2023-02-19T10:18:31.058Z,79.59
2023-02-19T10:20:58.266Z,78.69
2023-02-19T10:23:25.773Z,80.22
2023-02-19T10:25:57.412Z,79.94
2023-02-19T10:28:28.556Z,80.17
2023-02-19T10:30:58.090Z,79.96
2023-02-19T10:33:25.623Z,80.55
2023-02-19T10:36:07.191Z,79.97
2023-02-19T10:38:37.984Z,78.95
2023-02-19T10:41:07.983Z,80.28
2023-02-19T10:43:42.422Z,80.11
2023-02-19T10:46:23.071Z,79.12
2023-02-19T10:48:55.620Z,79.45
2023-02-19T10:51:35.120Z,80.05
2023-02-19T10:54:36.125Z,79.53
2023-02-19T10:57:15.144Z,79.61
2023-02-19T10:59:53.611Z,80.63
2023-02-19T11:02:21.612Z,82.19
2023-02-19T11:05:09.110Z,84.21
2023-02-19T11:07:36.786Z,83.90
2023-02-19T11:10:05.482Z,83.58
2023-02-19T11:12:34.622Z,83.75
2023-02-19T11:15:20.781Z,84.55
2023-02-19T11:17:58.930Z,83.57
2023-02-19T11:20:26.229Z,83.11
2023-02-19T11:22:58.347Z,82.86
2023-02-19T11:25:25.833Z,83.76
2023-02-19T11:27:56.549Z,83.25
2023-02-19T11:30:36.406Z,83.58
2023-02-19T11:33:33.159Z,85.25
2023-02-19T11:36:14.848Z,87.45
2023-02-19T11:38:42.477Z,88.29
2023-02-19T11:41:18.272Z,88.83
2023-02-19T11:43:57.236Z,88.17
2023-02-19T11:46:30.245Z,86.12
2023-02-19T11:49:21.178Z,85.77
2023-02-19T11:52:03.384Z,83.54
2023-02-19T11:54:44.918Z,83.55
2023-02-19T11:57:52.369Z,82.70
2023-02-19T12:00:22.143Z,83.41
2023-02-19T12:03:13.546Z,83.69
2023-02-19T12:06:15.757Z,81.37
2023-02-19T12:08:57.718Z,81.86
2023-02-19T12:11:36.576Z,82.42
2023-02-19T12:14:08.740Z,81.88
2023-02-19T12:16:47.713Z,80.49
2023-02-19T12:19:32.631Z,80.43
2023-02-19T12:22:09.405Z,81.07
2023-02-19T12:25:14.301Z,80.61
2023-02-19T12:28:04.973Z,81.54
2023-02-19T12:30:40.196Z,81.74
2023-02-19T12:33:25.573Z,83.47
2023-02-19T12:35:55.236Z,84.44
2023-02-19T12:38:33.342Z,85.09
2023-02-19T12:41:33.822Z,87.17
2023-02-19T12:44:11.886Z,88.00
2023-02-19T12:46:49.305Z,88.45
2023-02-19T12:49:40.325Z,88.91
2023-02-19T12:52:10.058Z,88.61
2023-02-19T12:54:44.108Z,87.72
2023-02-19T12:57:15.592Z,88.01
2023-02-19T12:59:46.238Z,88.53
2023-02-19T13:02:22.218Z,86.48
2023-02-19T13:05:23.736Z,86.54
2023-02-19T13:08:03.900Z,86.31
2023-02-19T13:10:44.923Z,85.31
2023-02-19T13:13:24.034Z,83.64
2023-02-19T13:15:56.665Z,83.90
2023-02-19T13:18:28.901Z,83.14
2023-02-19T13:20:56.346Z,80.21
2023-02-19T13:23:49.923Z,81.74
2023-02-19T13:26:31.700Z,81.85
2023-02-19T13:29:16.706Z,81.92
2023-02-19T13:32:14.028Z,80.46
2023-02-19T13:34:59.254Z,79.01
2023-02-19T13:37:26.675Z,80.75
2023-02-19T13:39:55.125Z,80.82
2023-02-19T13:42:32.982Z,79.71
2023-02-19T13:45:01.161Z,80.71
2023-02-19T13:47:59.702Z,79.14
2023-02-19T13:50:31.660Z,79.58
2023-02-19T13:52:59.894Z,80.01
2023-02-19T13:55:46.484Z,79.15
2023-02-19T13:58:34.788Z,78.23
2023-02-19T14:01:10.516Z,77.69
2023-02-19T14:03:37.120Z,77.58
2023-02-19T14:06:06.560Z,76.85
2023-02-19T14:09:00.228Z,78.48
2023-02-19T14:11:41.847Z,78.73
2023-02-19T14:14:43.730Z,79.36
2023-02-19T14:17:10.118Z,78.48
2023-02-19T14:19:42.832Z,79.08
2023-02-19T14:22:46.090Z,77.75
2023-02-19T14:25:34.868Z,77.23
2023-02-19T14:28:21.499Z,79.89
2023-02-19T14:30:54.727Z,78.75
2023-02-19T14:33:23.630Z,77.40
2023-02-19T14:35:58.884Z,78.17
2023-02-19T14:38:27.596Z,78.20
2023-02-19T14:40:55.420Z,78.12
2023-02-19T14:43:25.100Z,79.90
2023-02-19T14:45:56.642Z,81.23
2023-02-19T14:48:35.202Z,82.15
2023-02-19T14:51:11.516Z,82.38
2023-02-19T14:53:43.037Z,84.26
2023-02-19T14:56:39.312Z,85.21
2023-02-19T14:59:11.801Z,84.49
2023-02-19T15:01:39.321Z,85.09
2023-02-19T15:04:06.551Z,85.15
2023-02-19T15:06:35.633Z,84.63
2023-02-19T15:09:05.868Z,83.80
2023-02-19T15:11:34.461Z,83.38
2023-02-19T15:14:03.835Z,84.46
2023-02-19T15:16:32.745Z,84.18
2023-02-19T15:19:00.063Z,82.80
2023-02-19T15:21:32.337Z,83.55
2023-02-19T15:24:04.976Z,82.16
2023-02-19T15:26:35.935Z,83.34
2023-02-19T15:29:08.960Z,83.74
2023-02-19T15:31:36.040Z,83.46
2023-02-19T15:34:02.691Z,82.08
2023-02-19T15:36:33.746Z,82.35
2023-02-19T15:39:02.505Z,82.05
2023-02-19T15:41:33.633Z,81.91
2023-02-19T15:44:15.241Z,83.04
2023-02-19T15:46:44.690Z,82.77
2023-02-19T15:49:21.954Z,81.75
2023-02-19T15:52:11.833Z,82.24
2023-02-19T15:54:52.488Z,81.92
2023-02-19T15:57:26.253Z,83.84
2023-02-19T16:00:05.526Z,83.45
2023-02-19T16:02:33.039Z,83.30
2023-02-19T16:05:02.098Z,80.91
2023-02-19T16:07:34.308Z,81.37
2023-02-19T16:10:19.494Z,81.56
2023-02-19T16:12:59.416Z,80.89
2023-02-19T16:15:27.998Z,81.06
2023-02-19T16:17:54.915Z,81.52
2023-02-19T16:20:26.119Z,81.47
2023-02-19T16:22:59.270Z,80.37
2023-02-19T16:25:40.333Z,81.63
2023-02-19T16:28:13.583Z,82.37
2023-02-19T16:30:41.394Z,81.10
2023-02-19T16:33:38.839Z,81.62
2023-02-19T16:36:21.732Z,82.14
2023-02-19T16:39:04.991Z,82.26
2023-02-19T16:41:31.629Z,81.82
2023-02-19T16:43:58.212Z,81.97
2023-02-19T16:46:24.593Z,82.53
2023-02-19T16:48:51.429Z,81.41
2023-02-19T16:51:23.549Z,81.94
2023-02-19T16:53:50.070Z,82.03
2023-02-19T16:56:18.799Z,81.64
2023-02-19T16:58:45.294Z,82.05
2023-02-19T17:01:12.165Z,82.02
2023-02-19T17:03:39.504Z,82.33
2023-02-19T17:06:06.009Z,81.98
2023-02-19T17:08:38.111Z,81.72
2023-02-19T17:11:10.694Z,81.31
2023-02-19T17:13:37.503Z,82.08
2023-02-19T17:16:04.595Z,81.61
2023-02-19T17:18:31.042Z,81.00
2023-02-19T17:21:10.896Z,82.51
2023-02-19T17:23:37.930Z,82.84
2023-02-19T17:26:04.527Z,83.18
2023-02-19T17:28:30.933Z,84.57
2023-02-19T17:30:57.372Z,85.07
2023-02-19T17:33:23.785Z,84.32
2023-02-19T17:35:50.228Z,85.37
2023-02-19T17:38:16.837Z,86.32
2023-02-19T17:40:44.981Z,86.51
2023-02-19T17:43:11.347Z,85.70
2023-02-19T17:45:38.303Z,85.98
2023-02-19T17:48:04.988Z,85.27
2023-02-19T17:50:32.353Z,86.00
2023-02-19T17:52:59.157Z,85.78
2023-02-19T17:55:25.921Z,85.80
2023-02-19T17:57:53.186Z,85.51
2023-02-19T18:00:26.569Z,84.95
2023-02-19T18:02:54.222Z,85.38
2023-02-19T18:05:21.070Z,85.05
2023-02-19T18:07:48.430Z,84.82
2023-02-19T18:10:19.557Z,84.97
2023-02-19T18:12:46.048Z,84.63
2023-02-19T18:15:30.601Z,85.30
2023-02-19T18:17:58.224Z,84.88
2023-02-19T18:20:28.974Z,83.87
2023-02-19T18:22:56.596Z,84.78
2023-02-19T18:25:24.164Z,85.25
2023-02-19T18:27:51.105Z,85.92
2023-02-19T18:30:19.320Z,85.90
2023-02-19T18:32:49.857Z,86.59
2023-02-19T18:35:17.831Z,86.62
2023-02-19T18:37:45.004Z,87.10
2023-02-19T18:40:12.167Z,86.65
2023-02-19T18:42:39.640Z,87.02
2023-02-19T18:45:06.559Z,87.29
2023-02-19T18:47:32.948Z,86.50
2023-02-19T18:49:59.812Z,87.09
2023-02-19T18:52:27.258Z,86.45
2023-02-19T18:54:55.303Z,86.41
2023-02-19T18:57:23.497Z,86.28
2023-02-19T18:59:50.510Z,86.34
2023-02-19T19:02:17.265Z,86.69
2023-02-19T19:04:48.120Z,85.70
2023-02-19T19:07:14.674Z,85.72
2023-02-19T19:09:41.034Z,85.63
2023-02-19T19:12:07.508Z,84.82
2023-02-19T19:14:34.497Z,85.98
2023-02-19T19:17:00.990Z,85.91
2023-02-19T19:19:27.464Z,85.75
2023-02-19T19:21:54.733Z,85.62
2023-02-19T19:24:22.368Z,85.49
2023-02-19T19:26:50.604Z,85.71
2023-02-19T19:29:20.357Z,84.47
2023-02-19T19:31:46.960Z,84.26
2023-02-19T19:34:13.993Z,84.60
2023-02-19T19:36:40.389Z,84.34
2023-02-19T19:39:07.165Z,84.58
2023-02-19T19:41:33.651Z,84.34
2023-02-19T19:44:06.300Z,83.51
2023-02-19T19:46:33.751Z,83.36
2023-02-19T19:49:00.541Z,84.63
2023-02-19T19:51:34.128Z,84.13
2023-02-19T19:54:01.856Z,84.05
2023-02-19T19:56:28.292Z,83.67
2023-02-19T19:58:54.708Z,83.19
2023-02-19T20:01:22.872Z,83.10
2023-02-19T20:03:51.038Z,82.88
2023-02-19T20:06:28.488Z,82.40
2023-02-19T20:08:55.080Z,83.19
2023-02-19T20:11:21.529Z,82.98
2023-02-19T20:13:48.154Z,82.28
2023-02-19T20:16:14.754Z,82.59
2023-02-19T20:18:41.980Z,82.79
2023-02-19T20:21:10.460Z,82.14
2023-02-19T20:23:40.334Z,82.61
2023-02-19T20:26:06.871Z,82.53
2023-02-19T20:28:34.104Z,81.45
2023-02-19T20:31:00.654Z,82.80
2023-02-19T20:33:27.153Z,81.62
2023-02-19T20:35:53.649Z,82.25
2023-02-19T20:38:20.097Z,82.49
2023-02-19T20:40:46.672Z,82.90
2023-02-19T20:43:13.053Z,82.35
2023-02-19T20:45:40.904Z,82.30
2023-02-19T20:48:07.409Z,81.79
2023-02-19T20:50:33.824Z,81.55
2023-02-19T20:53:00.269Z,80.89
2023-02-19T20:55:26.762Z,80.56
2023-02-19T20:57:53.128Z,82.38
2023-02-19T21:00:20.132Z,82.16
2023-02-19T21:02:46.880Z,81.90
2023-02-19T21:05:13.493Z,81.50
2023-02-19T21:07:39.951Z,81.75
2023-02-19T21:10:07.424Z,82.78
2023-02-19T21:12:33.817Z,81.45
2023-02-19T21:15:00.337Z,81.91
2023-02-19T21:17:26.747Z,81.46
2023-02-19T21:19:53.257Z,81.54
2023-02-19T21:22:19.743Z,82.05
2023-02-19T21:24:49.510Z,81.35
2023-02-19T21:27:16.103Z,80.99
2023-02-19T21:29:42.574Z,80.59
2023-02-19T21:32:09.145Z,80.58
2023-02-19T21:34:35.598Z,81.60
2023-02-19T21:37:02.162Z,80.65
2023-02-19T21:39:30.422Z,80.29
2023-02-19T21:41:58.608Z,81.52
2023-02-19T21:44:26.051Z,80.61
2023-02-19T21:46:52.479Z,80.28
2023-02-19T21:49:18.897Z,81.12
2023-02-19T21:51:47.810Z,80.58
2023-02-19T21:54:17.418Z,81.31
2023-02-19T21:56:44.246Z,80.21
2023-02-19T21:59:10.927Z,80.79
2023-02-19T22:01:42.071Z,80.25
2023-02-19T22:04:11.011Z,80.74
2023-02-19T22:06:39.442Z,81.67
2023-02-19T22:09:07.677Z,81.68
2023-02-19T22:11:34.188Z,80.27
2023-02-19T22:14:01.047Z,80.90
2023-02-19T22:16:28.667Z,81.32
2023-02-19T22:18:57.536Z,80.76
2023-02-19T22:21:26.812Z,81.64
2023-02-19T22:23:54.277Z,81.87
2023-02-19T22:26:29.050Z,82.01
2023-02-19T22:28:55.522Z,82.79
2023-02-19T22:31:24.550Z,82.66
2023-02-19T22:33:51.568Z,82.09
2023-02-19T22:36:21.170Z,82.21
2023-02-19T22:38:48.167Z,81.43
2023-02-19T22:41:15.993Z,80.98
2023-02-19T22:43:42.386Z,81.93
2023-02-19T22:46:19.975Z,82.50
2023-02-19T22:48:46.768Z,81.56
2023-02-19T22:51:15.729Z,83.03
2023-02-19T22:53:46.836Z,83.93
2023-02-19T22:56:14.871Z,83.93
2023-02-19T22:58:42.000Z,83.92
2023-02-19T23:01:10.115Z,84.10
2023-02-19T23:03:54.884Z,83.46
2023-02-19T23:06:30.173Z,83.95
2023-02-19T23:08:58.375Z,83.83
2023-02-19T23:11:30.883Z,84.33
2023-02-19T23:13:58.261Z,84.96
2023-02-19T23:16:25.433Z,85.62
2023-02-19T23:18:51.994Z,86.22
2023-02-19T23:21:18.768Z,86.32
2023-02-19T23:23:46.371Z,86.58
2023-02-19T23:26:14.265Z,86.43
2023-02-19T23:28:42.493Z,86.81
2023-02-19T23:31:10.105Z,86.47
2023-02-19T23:33:36.691Z,87.40
2023-02-19T23:36:03.368Z,87.96
2023-02-19T23:38:29.799Z,89.00
2023-02-19T23:40:56.198Z,89.16
2023-02-19T23:43:23.121Z,88.72
2023-02-19T23:45:49.666Z,88.63
2023-02-19T23:48:16.101Z,88.90
2023-02-19T23:50:42.907Z,88.73
2023-02-19T23:53:09.391Z,89.65
2023-02-19T23:55:35.785Z,89.06
2023-02-19T23:58:02.292Z,89.39
